Time;durP1;ratioP1;P1;durP2;ratioP2;P2;SDS_P1;SDS_P2;PMS_P1;PMS_P2;Temp;Humidity;BMP_temperature;BMP_pressure;BME280_temperature;BME280_humidity;BME280_pressure;Samples;Min_cycle;Max_cycle;Signal;HPM_P1;HPM_P2
2023/02/24 00:02:13;;;;;;;66.85;32.00;;;;;;;;;;5050383;28;20036;-77
2023/02/24 00:04:39;;;;;;;34.58;16.75;;;;;;;;;;5052814;28;20120;-78
2023/02/24 00:07:06;;;;;;;36.22;15.70;;;;;;;;;;5051281;28;20055;-77
2023/02/24 00:09:32;;;;;;;27.17;13.68;;;;;;;;;;5049789;28;20044;-77
2023/02/24 00:12:01;;;;;;;31.30;14.48;;;;;;;;;;5034490;28;20037;-77
2023/02/24 00:14:28;;;;;;;34.83;16.10;;;;;;;;;;5050936;28;20040;-77
2023/02/24 00:16:54;;;;;;;28.88;13.60;;;;;;;;;;5051691;28;20068;-76
2023/02/24 00:19:22;;;;;;;31.85;15.65;;;;;;;;;;5052674;28;20040;-77
2023/02/24 00:21:50;;;;;;;31.42;16.63;;;;;;;;;;5050064;28;20498;-76
2023/02/24 00:24:16;;;;;;;30.98;13.90;;;;;;;;;;5050742;28;20033;-77
2023/02/24 00:26:47;;;;;;;33.30;17.50;;;;;;;;;;5047962;28;20132;-76
2023/02/24 00:29:13;;;;;;;36.83;19.00;;;;;;;;;;5050593;28;20497;-77
2023/02/24 00:31:41;;;;;;;40.20;20.92;;;;;;;;;;5051318;28;20025;-77
2023/02/24 00:34:08;;;;;;;39.50;18.13;;;;;;;;;;5061238;28;20040;-76
2023/02/24 00:36:34;;;;;;;41.15;18.33;;;;;;;;;;5050024;28;20032;-77
2023/02/24 00:39:10;;;;;;;36.88;19.20;;;;;;;;;;5037359;28;20459;-77
2023/02/24 00:41:40;;;;;;;42.97;18.23;;;;;;;;;;5044918;28;20127;-77
2023/02/24 00:44:08;;;;;;;35.50;18.67;;;;;;;;;;5050595;28;20467;-77
2023/02/24 00:46:39;;;;;;;41.78;19.65;;;;;;;;;;5047676;28;20112;-76
2023/02/24 00:49:06;;;;;;;40.83;19.20;;;;;;;;;;5049362;28;20037;-76
2023/02/24 00:51:36;;;;;;;31.85;14.93;;;;;;;;;;5041076;28;20071;-77
2023/02/24 00:54:03;;;;;;;25.80;12.75;;;;;;;;;;5049374;28;20044;-76
2023/02/24 00:56:29;;;;;;;21.02;10.15;;;;;;;;;;5043619;28;20025;-76
2023/02/24 00:58:57;;;;;;;19.95;9.73;;;;;;;;;;5044979;28;20032;-76
2023/02/24 01:01:24;;;;;;;22.20;11.65;;;;;;;;;;5050461;28;20029;-76
2023/02/24 01:03:50;;;;;;;28.10;13.52;;;;;;;;;;5056350;28;20036;-77
2023/02/24 01:06:19;;;;;;;30.90;12.13;;;;;;;;;;5050267;28;20044;-77
2023/02/24 01:08:46;;;;;;;24.88;11.00;;;;;;;;;;5047925;28;20910;-77
2023/02/24 01:13:58;;;;;;;28.05;13.15;;;;;;;;;;5051643;28;20043;-77
2023/02/24 01:16:24;;;;;;;32.85;13.43;;;;;;;;;;5040316;28;20032;-76
2023/02/24 01:18:50;;;;;;;26.05;12.90;;;;;;;;;;5049457;28;20110;-76
2023/02/24 01:21:17;;;;;;;31.35;12.38;;;;;;;;;;5043950;28;20025;-76
2023/02/24 01:23:46;;;;;;;34.10;16.00;;;;;;;;;;5049152;28;20040;-77
2023/02/24 01:26:13;;;;;;;42.42;18.63;;;;;;;;;;5048462;28;20079;-77
2023/02/24 01:28:38;;;;;;;39.13;16.35;;;;;;;;;;5042048;28;20044;-77
2023/02/24 01:31:05;;;;;;;26.67;14.43;;;;;;;;;;5042915;28;20440;-77
2023/02/24 01:33:38;;;;;;;21.75;9.82;;;;;;;;;;5046968;28;20043;-77
2023/02/24 01:36:24;;;;;;;17.70;8.18;;;;;;;;;;5041414;28;20040;-77
2023/02/24 01:38:50;;;;;;;23.27;8.20;;;;;;;;;;5047098;28;20727;-76
2023/02/24 01:41:18;;;;;;;24.52;10.05;;;;;;;;;;5045557;28;20087;-77
2023/02/24 01:44:00;;;;;;;21.17;8.38;;;;;;;;;;5051222;28;20120;-77
2023/02/24 01:46:31;;;;;;;23.73;9.55;;;;;;;;;;5049506;28;20112;-77
2023/02/24 01:49:01;;;;;;;22.08;8.35;;;;;;;;;;5050955;28;20753;-76
2023/02/24 01:51:28;;;;;;;19.02;8.25;;;;;;;;;;5045369;28;20034;-76
2023/02/24 01:53:54;;;;;;;18.27;8.05;;;;;;;;;;5049461;28;20037;-76
2023/02/24 01:56:20;;;;;;;20.55;9.15;;;;;;;;;;5046236;28;20113;-76
2023/02/24 01:58:46;;;;;;;20.75;7.43;;;;;;;;;;5047562;28;20036;-76
2023/02/24 02:01:15;;;;;;;16.75;8.55;;;;;;;;;;5042456;28;20029;-76
2023/02/24 02:03:42;;;;;;;19.00;8.95;;;;;;;;;;5046116;28;20037;-76
2023/02/24 02:06:10;;;;;;;18.02;8.77;;;;;;;;;;5049301;28;20166;-76
2023/02/24 02:08:37;;;;;;;22.13;9.98;;;;;;;;;;5044422;28;20068;-76
2023/02/24 02:11:05;;;;;;;15.85;8.70;;;;;;;;;;5047619;28;20041;-77
2023/02/24 02:13:34;;;;;;;19.60;9.82;;;;;;;;;;5048156;28;20040;-76
2023/02/24 02:16:19;;;;;;;20.48;10.55;;;;;;;;;;5048983;28;20048;-77
2023/02/24 02:19:04;;;;;;;31.27;11.50;;;;;;;;;;5048314;28;20043;-76
2023/02/24 02:21:39;;;;;;;21.80;10.27;;;;;;;;;;5039466;28;20497;-77
2023/02/24 02:24:05;;;;;;;20.00;8.77;;;;;;;;;;5052562;28;20040;-76
2023/02/24 02:26:40;;;;;;;20.40;7.50;;;;;;;;;;5048425;28;20045;-76
2023/02/24 02:29:25;;;;;;;17.40;7.88;;;;;;;;;;5049269;28;20037;-77
2023/02/24 02:31:56;;;;;;;22.63;8.27;;;;;;;;;;5046574;28;20774;-76
2023/02/24 02:34:44;;;;;;;27.95;8.93;;;;;;;;;;5048995;28;20028;-76
2023/02/24 02:37:11;;;;;;;24.63;13.27;;;;;;;;;;5039206;28;20142;-77
2023/02/24 02:39:47;;;;;;;24.90;11.25;;;;;;;;;;5041028;28;20029;-77
2023/02/24 02:42:15;;;;;;;23.15;9.90;;;;;;;;;;5049751;28;20041;-77
2023/02/24 02:44:55;;;;;;;18.85;8.85;;;;;;;;;;5045296;28;20087;-77
2023/02/24 02:47:22;;;;;;;21.25;10.15;;;;;;;;;;5038071;28;20160;-77
2023/02/24 02:50:26;;;;;;;22.90;8.95;;;;;;;;;;5045563;28;20037;-77
2023/02/24 02:53:01;;;;;;;22.55;8.13;;;;;;;;;;4986797;28;20042;-77
2023/02/24 02:55:53;;;;;;;21.25;8.88;;;;;;;;;;4987202;28;20112;-77
2023/02/24 02:58:22;;;;;;;18.58;8.52;;;;;;;;;;5022143;28;20049;-77
2023/02/24 03:01:01;;;;;;;21.60;8.88;;;;;;;;;;5039889;28;20037;-76
2023/02/24 03:03:29;;;;;;;24.35;10.02;;;;;;;;;;5033521;28;20370;-76
2023/02/24 03:06:06;;;;;;;24.13;10.13;;;;;;;;;;5032850;28;20096;-76
2023/02/24 03:08:36;;;;;;;20.40;9.20;;;;;;;;;;5041046;28;20038;-76
2023/02/24 03:11:04;;;;;;;22.45;8.90;;;;;;;;;;5041570;28;20137;-76
2023/02/24 03:13:35;;;;;;;29.45;10.98;;;;;;;;;;5038834;28;20518;-76
2023/02/24 03:16:03;;;;;;;21.13;9.15;;;;;;;;;;5047542;28;20409;-76
2023/02/24 03:18:34;;;;;;;18.98;9.43;;;;;;;;;;5048830;28;20033;-76
2023/02/24 03:21:06;;;;;;;21.90;10.15;;;;;;;;;;5047239;28;20439;-76
2023/02/24 03:23:35;;;;;;;24.75;10.75;;;;;;;;;;5044631;28;20039;-76
2023/02/24 03:26:17;;;;;;;23.83;8.88;;;;;;;;;;5043640;28;20080;-76
2023/02/24 03:29:04;;;;;;;19.63;9.35;;;;;;;;;;5046360;28;20044;-76
2023/02/24 03:31:38;;;;;;;18.88;8.15;;;;;;;;;;5026394;28;20129;-76
2023/02/24 03:34:11;;;;;;;21.75;7.95;;;;;;;;;;5046860;28;20072;-76
2023/02/24 03:36:38;;;;;;;16.63;7.47;;;;;;;;;;5039379;28;20096;-76
2023/02/24 03:39:04;;;;;;;17.75;8.10;;;;;;;;;;5048462;28;20055;-76
2023/02/24 03:41:37;;;;;;;17.63;7.03;;;;;;;;;;5046508;28;20035;-77
2023/02/24 03:44:05;;;;;;;18.90;6.82;;;;;;;;;;5047165;28;20032;-76
2023/02/24 03:46:31;;;;;;;18.30;8.20;;;;;;;;;;5036910;28;20039;-76
2023/02/24 03:49:02;;;;;;;18.65;6.90;;;;;;;;;;5052266;28;20028;-76
2023/02/24 03:51:28;;;;;;;17.60;7.82;;;;;;;;;;5046722;28;20037;-76
2023/02/24 03:53:56;;;;;;;17.25;6.82;;;;;;;;;;5050998;28;20033;-76
2023/02/24 03:56:29;;;;;;;18.20;7.00;;;;;;;;;;5031460;28;20029;-76
2023/02/24 03:58:58;;;;;;;27.88;7.35;;;;;;;;;;5046562;28;20037;-76
2023/02/24 04:01:30;;;;;;;15.60;6.57;;;;;;;;;;5046680;28;20025;-76
2023/02/24 04:04:02;;;;;;;15.40;7.43;;;;;;;;;;5049110;28;20021;-76
2023/02/24 04:06:40;;;;;;;18.67;6.88;;;;;;;;;;5044611;28;20080;-76
2023/02/24 04:09:18;;;;;;;19.83;7.88;;;;;;;;;;5045224;28;20520;-76
2023/02/24 04:11:44;;;;;;;17.75;7.20;;;;;;;;;;5050906;28;20037;-76
2023/02/24 04:14:29;;;;;;;16.77;6.32;;;;;;;;;;5051671;28;20141;-76
2023/02/24 04:16:59;;;;;;;21.65;7.55;;;;;;;;;;5050909;28;20112;-76
2023/02/24 04:19:28;;;;;;;17.42;6.20;;;;;;;;;;5051881;28;20499;-76
2023/02/24 04:21:54;;;;;;;16.73;6.75;;;;;;;;;;5050130;28;20036;-76
2023/02/24 04:24:22;;;;;;;14.48;6.57;;;;;;;;;;5051497;28;20040;-76
2023/02/24 04:26:49;;;;;;;17.70;6.72;;;;;;;;;;5051154;28;20033;-76
2023/02/24 04:29:19;;;;;;;20.15;7.13;;;;;;;;;;5051486;28;20037;-76
2023/02/24 04:31:47;;;;;;;18.30;7.18;;;;;;;;;;5050594;28;20029;-76
2023/02/24 04:34:18;;;;;;;15.45;7.18;;;;;;;;;;5050740;28;20057;-76
2023/02/24 04:36:48;;;;;;;22.90;8.38;;;;;;;;;;5053822;28;20086;-76
2023/02/24 04:39:17;;;;;;;19.95;9.02;;;;;;;;;;5049215;28;20049;-76
2023/02/24 04:41:44;;;;;;;27.85;9.73;;;;;;;;;;5047425;28;20588;-76
2023/02/24 04:44:10;;;;;;;18.65;9.48;;;;;;;;;;5050975;28;20029;-76
2023/02/24 04:46:36;;;;;;;19.48;8.32;;;;;;;;;;5046520;28;20037;-76
2023/02/24 04:49:02;;;;;;;17.15;8.88;;;;;;;;;;5053625;28;20029;-76
2023/02/24 04:51:31;;;;;;;18.98;8.90;;;;;;;;;;5050294;28;20148;-76
2023/02/24 04:53:57;;;;;;;23.48;9.90;;;;;;;;;;5054955;28;20036;-76
2023/02/24 04:56:23;;;;;;;19.90;8.27;;;;;;;;;;5044704;28;20029;-77
2023/02/24 04:58:49;;;;;;;22.05;9.77;;;;;;;;;;5048180;28;20485;-76
2023/02/24 05:01:15;;;;;;;18.10;10.68;;;;;;;;;;5050632;28;20055;-76
2023/02/24 05:03:42;;;;;;;22.85;11.82;;;;;;;;;;5050387;28;20029;-76
2023/02/24 05:06:12;;;;;;;20.25;11.48;;;;;;;;;;5041480;28;20045;-76
2023/02/24 05:08:39;;;;;;;22.08;12.50;;;;;;;;;;5045885;28;20031;-76
2023/02/24 05:11:05;;;;;;;24.70;10.45;;;;;;;;;;5041687;28;20470;-76
2023/02/24 05:13:32;;;;;;;26.92;12.00;;;;;;;;;;5050326;28;20470;-76
2023/02/24 05:16:06;;;;;;;22.38;10.88;;;;;;;;;;5049944;28;20506;-76
2023/02/24 05:18:36;;;;;;;21.17;9.65;;;;;;;;;;5045888;28;20025;-76
2023/02/24 05:23:52;;;;;;;24.95;11.35;;;;;;;;;;5048585;28;20082;-76
2023/02/24 05:26:19;;;;;;;20.98;10.88;;;;;;;;;;5049423;28;20040;-76
2023/02/24 05:28:48;;;;;;;23.80;11.00;;;;;;;;;;5054024;28;20467;-77
2023/02/24 05:31:15;;;;;;;27.25;11.45;;;;;;;;;;5042353;28;20386;-76
2023/02/24 05:33:41;;;;;;;21.77;11.05;;;;;;;;;;5047873;28;20665;-76
2023/02/24 05:36:09;;;;;;;27.38;13.32;;;;;;;;;;5043372;28;20686;-76
2023/02/24 05:38:36;;;;;;;26.27;14.15;;;;;;;;;;5060613;28;20036;-76
2023/02/24 05:41:07;;;;;;;28.42;13.45;;;;;;;;;;5035531;28;20060;-76
2023/02/24 05:43:34;;;;;;;31.20;15.70;;;;;;;;;;5045757;28;20076;-76
2023/02/24 05:46:02;;;;;;;29.67;13.60;;;;;;;;;;5043747;28;20037;-76
2023/02/24 05:48:33;;;;;;;30.77;13.18;;;;;;;;;;5043968;28;20053;-76
2023/02/24 05:50:59;;;;;;;25.08;14.48;;;;;;;;;;5049817;28;20059;-76
2023/02/24 05:53:26;;;;;;;29.70;15.68;;;;;;;;;;5050827;28;20025;-76
2023/02/24 05:55:52;;;;;;;21.00;12.63;;;;;;;;;;5049722;28;20493;-76
2023/02/24 05:58:18;;;;;;;23.02;12.90;;;;;;;;;;5050673;28;20100;-76
2023/02/24 06:00:45;;;;;;;32.70;15.43;;;;;;;;;;5049200;28;20044;-76
2023/02/24 06:03:16;;;;;;;34.17;18.50;;;;;;;;;;5048652;28;20159;-76
2023/02/24 06:05:42;;;;;;;33.33;18.73;;;;;;;;;;5049381;28;20032;-76
2023/02/24 06:08:10;;;;;;;30.77;16.83;;;;;;;;;;5038787;28;20143;-75
2023/02/24 06:10:39;;;;;;;26.55;15.25;;;;;;;;;;5047815;28;20052;-77
2023/02/24 06:13:05;;;;;;;33.15;19.85;;;;;;;;;;5053105;28;20032;-76
2023/02/24 06:15:31;;;;;;;32.70;18.98;;;;;;;;;;5047769;28;20520;-75
2023/02/24 06:17:59;;;;;;;32.92;17.27;;;;;;;;;;5049551;28;20037;-76
2023/02/24 06:20:26;;;;;;;29.40;18.00;;;;;;;;;;5047113;28;20032;-76
2023/02/24 06:22:54;;;;;;;36.72;17.88;;;;;;;;;;5051576;28;20402;-76
2023/02/24 06:25:23;;;;;;;35.92;20.00;;;;;;;;;;5048730;28;20032;-76
2023/02/24 06:27:53;;;;;;;33.35;18.55;;;;;;;;;;5048942;28;20123;-76
2023/02/24 06:30:20;;;;;;;33.47;16.17;;;;;;;;;;5047416;28;20025;-76
2023/02/24 06:32:47;;;;;;;22.63;11.68;;;;;;;;;;5046361;28;20032;-76
2023/02/24 06:35:13;;;;;;;33.45;14.05;;;;;;;;;;5048219;28;20374;-77
2023/02/24 06:37:39;;;;;;;32.00;15.70;;;;;;;;;;5042719;28;20037;-77
2023/02/24 06:40:16;;;;;;;25.83;14.70;;;;;;;;;;5046463;28;20063;-76
2023/02/24 06:42:46;;;;;;;24.17;13.55;;;;;;;;;;5044689;28;20394;-76
2023/02/24 06:45:13;;;;;;;31.48;14.00;;;;;;;;;;5046500;28;20037;-76
2023/02/24 06:47:41;;;;;;;32.22;12.55;;;;;;;;;;5043917;28;20163;-76
2023/02/24 06:50:08;;;;;;;27.85;12.98;;;;;;;;;;5042732;28;20025;-75
2023/02/24 06:52:35;;;;;;;25.65;12.93;;;;;;;;;;5045852;28;20076;-75
2023/02/24 06:55:03;;;;;;;27.42;12.32;;;;;;;;;;5039576;28;20025;-76
2023/02/24 06:57:33;;;;;;;39.70;18.15;;;;;;;;;;5047293;28;20110;-76
2023/02/24 07:00:00;;;;;;;34.33;18.30;;;;;;;;;;5041363;28;20028;-76
2023/02/24 07:02:33;;;;;;;36.33;15.90;;;;;;;;;;5046267;28;20037;-76
2023/02/24 07:04:59;;;;;;;31.80;13.95;;;;;;;;;;5054942;28;20037;-75
2023/02/24 07:07:27;;;;;;;28.45;13.95;;;;;;;;;;5052074;28;20052;-76
2023/02/24 07:09:53;;;;;;;24.20;12.07;;;;;;;;;;5047465;28;20029;-76
2023/02/24 07:12:19;;;;;;;25.83;13.18;;;;;;;;;;5040934;28;20039;-75
2023/02/24 07:14:49;;;;;;;25.75;14.35;;;;;;;;;;5044633;28;20612;-76
2023/02/24 07:17:17;;;;;;;35.42;15.30;;;;;;;;;;5046019;28;20039;-76
2023/02/24 07:19:44;;;;;;;35.70;16.23;;;;;;;;;;5042344;28;20025;-76
2023/02/24 07:22:13;;;;;;;44.15;18.67;;;;;;;;;;5049752;28;20060;-76
2023/02/24 07:24:44;;;;;;;41.40;18.42;;;;;;;;;;5051662;28;20025;-76
2023/02/24 07:27:20;;;;;;;37.90;17.37;;;;;;;;;;5051627;28;20052;-76
2023/02/24 07:29:46;;;;;;;34.00;15.25;;;;;;;;;;5049683;28;20348;-76
2023/02/24 07:32:12;;;;;;;29.02;13.82;;;;;;;;;;5049359;28;20083;-76
2023/02/24 07:34:38;;;;;;;41.13;20.08;;;;;;;;;;5052159;28;20036;-76
2023/02/24 07:37:06;;;;;;;44.47;21.55;;;;;;;;;;5056795;28;20029;-76
2023/02/24 07:39:32;;;;;;;42.15;19.95;;;;;;;;;;5050886;28;20036;-76
2023/02/24 07:41:58;;;;;;;42.35;20.20;;;;;;;;;;5052182;28;20033;-76
2023/02/24 07:44:25;;;;;;;35.55;18.92;;;;;;;;;;5052041;28;20029;-76
2023/02/24 07:46:51;;;;;;;34.10;16.83;;;;;;;;;;5030047;28;20045;-75
2023/02/24 07:49:19;;;;;;;35.95;16.83;;;;;;;;;;5043117;28;20064;-76
2023/02/24 07:51:46;;;;;;;34.90;15.93;;;;;;;;;;5049022;28;20037;-76
2023/02/24 07:54:14;;;;;;;34.22;15.80;;;;;;;;;;5051443;28;20408;-77
2023/02/24 07:56:44;;;;;;;33.20;17.42;;;;;;;;;;5056746;28;20389;-76
2023/02/24 07:59:14;;;;;;;39.53;16.60;;;;;;;;;;5048525;28;20033;-76
2023/02/24 08:01:48;;;;;;;38.97;18.52;;;;;;;;;;5051467;28;20401;-76
2023/02/24 08:04:14;;;;;;;44.80;19.77;;;;;;;;;;5044870;28;20032;-76
2023/02/24 08:06:44;;;;;;;40.85;16.75;;;;;;;;;;5057415;28;20123;-76
2023/02/24 08:09:19;;;;;;;31.45;16.02;;;;;;;;;;5047740;28;20030;-76
2023/02/24 08:11:51;;;;;;;27.88;12.23;;;;;;;;;;5027979;28;20091;-76
2023/02/24 08:14:18;;;;;;;24.98;11.63;;;;;;;;;;5050990;28;20165;-76
2023/02/24 08:16:45;;;;;;;27.15;12.13;;;;;;;;;;5052768;28;20033;-76
2023/02/24 08:19:13;;;;;;;28.52;12.15;;;;;;;;;;5049990;28;20035;-76
2023/02/24 08:21:46;;;;;;;26.52;13.30;;;;;;;;;;5048612;28;20479;-76
2023/02/24 08:24:16;;;;;;;27.98;10.70;;;;;;;;;;5050594;28;20036;-76
2023/02/24 08:26:43;;;;;;;28.38;10.65;;;;;;;;;;5048574;28;20033;-76
2023/02/24 08:29:09;;;;;;;21.17;10.45;;;;;;;;;;5048421;28;20451;-76
2023/02/24 08:31:35;;;;;;;22.58;9.80;;;;;;;;;;5049913;28;20033;-76
2023/02/24 08:34:01;;;;;;;20.27;9.80;;;;;;;;;;5050422;28;20078;-76
2023/02/24 08:36:27;;;;;;;27.83;11.25;;;;;;;;;;5050918;28;20036;-76
2023/02/24 08:38:58;;;;;;;27.17;12.50;;;;;;;;;;5040670;28;20068;-76
2023/02/24 08:41:43;;;;;;;22.02;10.48;;;;;;;;;;5040365;28;20057;-76
2023/02/24 08:44:09;;;;;;;28.20;11.50;;;;;;;;;;5047026;28;20036;-77
2023/02/24 08:46:36;;;;;;;23.17;9.98;;;;;;;;;;5050139;28;20029;-75
2023/02/24 08:49:09;;;;;;;25.75;9.90;;;;;;;;;;5045797;28;20033;-75
2023/02/24 08:51:36;;;;;;;21.67;9.70;;;;;;;;;;5049315;28;20032;-76
2023/02/24 08:54:09;;;;;;;22.55;9.55;;;;;;;;;;5050619;28;20036;-75
2023/02/24 08:56:42;;;;;;;26.38;10.32;;;;;;;;;;5041557;28;20028;-76
2023/02/24 08:59:14;;;;;;;;;;;;;;;;;;5049046;28;20029;-76
2023/02/24 09:01:51;;;;;;;25.60;10.43;;;;;;;;;;5048410;28;19916;-76
2023/02/24 09:04:18;;;;;;;20.75;10.05;;;;;;;;;;5040722;28;20508;-76
2023/02/24 09:06:46;;;;;;;18.80;9.23;;;;;;;;;;5045727;28;20045;-76
2023/02/24 09:09:16;;;;;;;17.95;8.82;;;;;;;;;;5049850;28;20470;-76
2023/02/24 09:11:43;;;;;;;18.80;8.45;;;;;;;;;;5042956;28;20038;-76
2023/02/24 09:14:15;;;;;;;19.65;9.10;;;;;;;;;;5050077;28;20039;-76
2023/02/24 09:17:09;;;;;;;17.80;8.63;;;;;;;;;;5049019;28;20595;-76
2023/02/24 09:22:30;;;;;;;27.63;10.20;;;;;;;;;;5046498;28;20083;-76
2023/02/24 09:25:17;;;;;;;24.33;9.38;;;;;;;;;;5050132;28;20040;-76
2023/02/24 09:27:51;;;;;;;26.67;7.95;;;;;;;;;;5049223;28;20039;-76
2023/02/24 09:33:21;;;;;;;21.73;6.38;;;;;;;;;;5024943;28;20037;-76
2023/02/24 09:36:09;;;;;;;19.38;6.55;;;;;;;;;;5027360;28;20076;-76
2023/02/24 09:44:25;;;;;;;18.27;6.10;;;;;;;;;;5047144;28;20033;-76
2023/02/24 09:46:54;;;;;;;15.27;5.95;;;;;;;;;;5046142;28;20521;-76
2023/02/24 09:49:23;;;;;;;19.35;6.25;;;;;;;;;;5047337;28;20040;-76
2023/02/24 09:51:59;;;;;;;20.40;7.93;;;;;;;;;;5042419;28;20368;-76
2023/02/24 09:54:29;;;;;;;21.40;7.30;;;;;;;;;;5050981;28;20052;-76
2023/02/24 09:57:07;;;;;;;17.00;6.50;;;;;;;;;;5043962;28;20806;-76
2023/02/24 09:59:36;;;;;;;17.33;5.90;;;;;;;;;;5043631;28;20030;-76
2023/02/24 10:02:14;;;;;;;19.67;5.85;;;;;;;;;;5038710;28;20049;-76
2023/02/24 10:05:05;;;;;;;21.75;6.00;;;;;;;;;;5052648;28;20060;-76
2023/02/24 10:07:37;;;;;;;19.83;5.95;;;;;;;;;;5036354;28;20059;-76
2023/02/24 10:10:18;;;;;;;15.07;5.22;;;;;;;;;;5047572;28;20119;-76
2023/02/24 10:12:51;;;;;;;20.70;5.68;;;;;;;;;;5048274;28;20037;-76
2023/02/24 10:18:26;;;;;;;20.67;6.53;;;;;;;;;;5036565;28;20155;-76
2023/02/24 10:20:53;;;;;;;21.88;6.45;;;;;;;;;;5047692;28;20102;-76
2023/02/24 10:23:31;;;;;;;27.88;6.85;;;;;;;;;;5052272;28;20044;-76
2023/02/24 10:26:20;;;;;;;17.65;6.68;;;;;;;;;;5047169;28;20032;-76
2023/02/24 10:28:53;;;;;;;19.10;5.28;;;;;;;;;;5043659;28;20055;-76
2023/02/24 10:31:25;;;;;;;18.90;5.57;;;;;;;;;;5047280;28;20043;-76
2023/02/24 10:33:59;;;;;;;16.00;5.53;;;;;;;;;;5048554;28;20176;-76
2023/02/24 10:36:34;;;;;;;22.10;6.82;;;;;;;;;;5037021;28;20033;-76
2023/02/24 10:39:07;;;;;;;23.58;6.82;;;;;;;;;;5045067;28;20028;-77
2023/02/24 10:41:44;;;;;;;21.02;7.43;;;;;;;;;;5038000;28;20729;-76
2023/02/24 10:44:10;;;;;;;15.50;6.95;;;;;;;;;;5043821;28;20370;-77
2023/02/24 10:46:37;;;;;;;21.95;6.38;;;;;;;;;;5047145;28;20450;-77
2023/02/24 10:49:08;;;;;;;17.33;6.57;;;;;;;;;;5050004;28;20352;-76
2023/02/24 10:51:39;;;;;;;23.47;6.40;;;;;;;;;;5042557;28;20371;-76
2023/02/24 10:57:45;;;;;;;19.55;6.30;;;;;;;;;;5048317;28;20064;-77
2023/02/24 11:00:18;;;;;;;14.13;5.22;;;;;;;;;;5043385;28;20123;-76
2023/02/24 11:03:07;;;;;;;17.00;6.05;;;;;;;;;;5044269;28;20450;-77
2023/02/24 11:08:42;;;;;;;20.52;6.00;;;;;;;;;;5048660;28;20360;-76
2023/02/24 11:11:29;;;;;;;16.65;6.03;;;;;;;;;;5052237;28;20037;-77
2023/02/24 11:19:41;;;;;;;19.67;5.80;;;;;;;;;;5045252;28;20156;-77
2023/02/24 11:22:07;;;;;;;13.18;4.72;;;;;;;;;;5049771;28;20036;-77
2023/02/24 11:24:36;;;;;;;19.60;5.22;;;;;;;;;;5049291;28;20554;-76
2023/02/24 11:27:03;;;;;;;18.10;5.63;;;;;;;;;;5039595;28;20032;-76
2023/02/24 11:29:48;;;;;;;19.10;5.57;;;;;;;;;;5055244;28;20036;-76
2023/02/24 11:32:36;;;;;;;15.82;5.15;;;;;;;;;;5050701;28;20053;-76
2023/02/24 11:35:16;;;;;;;16.40;5.38;;;;;;;;;;5051467;28;20576;-77
2023/02/24 11:38:01;;;;;;;17.77;5.25;;;;;;;;;;5050717;28;20044;-77
2023/02/24 11:40:36;;;;;;;15.23;5.50;;;;;;;;;;5046665;28;20044;-77
2023/02/24 11:43:05;;;;;;;17.98;4.78;;;;;;;;;;5050341;28;20025;-77
2023/02/24 11:45:37;;;;;;;10.95;4.35;;;;;;;;;;5053855;28;20033;-76
2023/02/24 11:48:09;;;;;;;15.05;5.45;;;;;;;;;;5045483;28;20082;-76
2023/02/24 11:50:38;;;;;;;16.07;5.37;;;;;;;;;;5052033;28;20029;-77
2023/02/24 11:53:17;;;;;;;20.02;5.28;;;;;;;;;;5048550;28;20041;-76
2023/02/24 11:55:45;;;;;;;16.52;4.97;;;;;;;;;;5062169;28;20486;-77
2023/02/24 11:58:32;;;;;;;13.73;4.20;;;;;;;;;;5049415;28;20029;-77
2023/02/24 12:01:08;;;;;;;15.82;4.97;;;;;;;;;;5049628;28;20517;-76
2023/02/24 12:03:41;;;;;;;13.13;4.70;;;;;;;;;;5050189;28;20064;-76
2023/02/24 12:06:18;;;;;;;18.88;5.05;;;;;;;;;;5050597;28;20048;-77
2023/02/24 12:08:45;;;;;;;14.15;4.55;;;;;;;;;;5049833;28;20033;-77
2023/02/24 12:11:17;;;;;;;19.27;5.20;;;;;;;;;;5050864;28;20052;-77
2023/02/24 12:14:12;;;;;;;16.77;5.47;;;;;;;;;;5050780;28;20028;-77
2023/02/24 12:16:44;;;;;;;14.40;5.30;;;;;;;;;;5036599;28;20156;-77
2023/02/24 12:19:19;;;;;;;18.73;5.15;;;;;;;;;;5050096;28;20462;-77
2023/02/24 12:21:55;;;;;;;15.18;4.63;;;;;;;;;;5050023;28;20033;-76
2023/02/24 12:24:21;;;;;;;12.63;4.78;;;;;;;;;;5047749;28;20040;-77
2023/02/24 12:27:07;;;;;;;17.00;5.70;;;;;;;;;;5051167;28;20033;-76
2023/02/24 12:29:53;;;;;;;12.43;4.63;;;;;;;;;;5041631;28;20036;-76
2023/02/24 12:32:30;;;;;;;16.05;4.95;;;;;;;;;;5049596;28;20063;-77
2023/02/24 12:35:20;;;;;;;15.93;4.95;;;;;;;;;;5041203;28;20028;-76
2023/02/24 12:38:04;;;;;;;19.80;5.13;;;;;;;;;;5049400;28;20378;-77
2023/02/24 12:40:33;;;;;;;15.73;4.93;;;;;;;;;;5052667;28;20082;-77
2023/02/24 12:43:13;;;;;;;17.88;5.30;;;;;;;;;;5049283;28;20364;-77
2023/02/24 12:45:58;;;;;;;19.33;5.53;;;;;;;;;;5031633;28;20029;-77
2023/02/24 12:48:36;;;;;;;16.85;4.88;;;;;;;;;;5036331;28;20040;-76
2023/02/24 12:51:27;;;;;;;22.63;5.43;;;;;;;;;;5045807;28;20398;-77
2023/02/24 12:54:06;;;;;;;21.35;7.57;;;;;;;;;;5050704;28;20094;-77
2023/02/24 12:56:37;;;;;;;23.38;7.43;;;;;;;;;;5045461;28;20079;-77
2023/02/24 12:59:05;;;;;;;22.52;6.97;;;;;;;;;;5043090;28;20025;-76
2023/02/24 13:01:50;;;;;;;28.45;6.65;;;;;;;;;;5048592;28;20044;-76
2023/02/24 13:04:22;;;;;;;18.40;5.07;;;;;;;;;;5035920;28;20029;-76
2023/02/24 13:06:56;;;;;;;21.05;6.70;;;;;;;;;;5045807;28;20057;-76
2023/02/24 13:09:40;;;;;;;15.75;6.38;;;;;;;;;;5049772;28;20041;-76
2023/02/24 13:12:16;;;;;;;21.80;6.35;;;;;;;;;;5045925;28;20032;-77
2023/02/24 13:14:42;;;;;;;21.85;6.63;;;;;;;;;;5028804;28;20065;-76
2023/02/24 13:17:08;;;;;;;25.20;6.43;;;;;;;;;;5049313;28;20033;-77
2023/02/24 13:19:35;;;;;;;18.50;6.15;;;;;;;;;;5049194;28;20131;-77
2023/02/24 13:22:04;;;;;;;21.67;6.05;;;;;;;;;;5049749;28;20037;-77
2023/02/24 13:24:30;;;;;;;25.08;6.97;;;;;;;;;;5049053;28;20032;-77
2023/02/24 13:27:25;;;;;;;19.83;6.60;;;;;;;;;;5044171;28;20039;-76
2023/02/24 13:29:59;;;;;;;24.98;6.72;;;;;;;;;;5027250;28;20051;-76
2023/02/24 13:32:36;;;;;;;26.00;6.43;;;;;;;;;;5041925;28;20094;-76
2023/02/24 13:35:04;;;;;;;24.67;7.85;;;;;;;;;;5049503;28;20108;-76
2023/02/24 13:37:38;;;;;;;25.25;6.28;;;;;;;;;;5045078;28;20032;-76
2023/02/24 13:40:16;;;;;;;28.85;7.35;;;;;;;;;;5049705;28;20095;-76
2023/02/24 13:42:43;;;;;;;21.45;6.75;;;;;;;;;;5045142;28;20045;-76
2023/02/24 13:45:09;;;;;;;21.67;6.85;;;;;;;;;;5016737;28;20356;-77
2023/02/24 13:47:35;;;;;;;25.50;7.05;;;;;;;;;;5054259;28;20077;-76
2023/02/24 13:50:20;;;;;;;27.10;6.63;;;;;;;;;;5049639;28;20032;-76
2023/02/24 13:52:52;;;;;;;16.92;5.78;;;;;;;;;;5046948;28;20769;-76
2023/02/24 13:55:24;;;;;;;26.45;7.18;;;;;;;;;;5046442;28;20033;-76
2023/02/24 13:57:50;;;;;;;;;;;;;;;;;;5045082;28;20038;-76
2023/02/24 14:00:20;;;;;;;17.05;7.03;;;;;;;;;;5047903;28;20015;-77
2023/02/24 14:02:47;;;;;;;23.77;6.85;;;;;;;;;;5042432;28;20497;-76
2023/02/24 14:05:33;;;;;;;21.27;5.97;;;;;;;;;;5041952;28;20060;-76
2023/02/24 14:07:59;;;;;;;18.50;6.40;;;;;;;;;;5046950;28;20045;-76
2023/02/24 14:10:26;;;;;;;28.63;7.28;;;;;;;;;;5048323;28;20032;-76
2023/02/24 14:13:07;;;;;;;24.55;7.05;;;;;;;;;;5046348;28;20398;-77
2023/02/24 14:15:34;;;;;;;27.60;7.20;;;;;;;;;;5048205;28;20064;-77
2023/02/24 14:18:01;;;;;;;28.73;7.03;;;;;;;;;;5048822;28;20032;-77
2023/02/24 14:20:30;;;;;;;27.83;6.60;;;;;;;;;;5041495;28;20083;-76
2023/02/24 14:22:57;;;;;;;28.80;6.57;;;;;;;;;;5048611;28;20041;-77
2023/02/24 14:25:24;;;;;;;21.13;6.50;;;;;;;;;;5044910;28;20028;-76
2023/02/24 14:27:50;;;;;;;19.17;6.35;;;;;;;;;;5047348;28;20040;-77
2023/02/24 14:30:36;;;;;;;22.63;6.38;;;;;;;;;;5047713;28;20033;-76
2023/02/24 14:33:04;;;;;;;24.55;5.97;;;;;;;;;;5043055;28;20822;-77
2023/02/24 14:35:34;;;;;;;26.20;7.57;;;;;;;;;;5040290;28;20029;-77
2023/02/24 14:38:01;;;;;;;25.83;7.97;;;;;;;;;;5044790;28;20056;-77
2023/02/24 14:40:27;;;;;;;26.60;8.13;;;;;;;;;;5041499;28;20369;-76
2023/02/24 14:42:54;;;;;;;22.90;7.63;;;;;;;;;;5050795;28;20043;-77
2023/02/24 14:45:22;;;;;;;25.95;8.85;;;;;;;;;;5039826;28;20500;-76
2023/02/24 14:47:48;;;;;;;27.88;8.40;;;;;;;;;;5047544;28;20029;-76
2023/02/24 14:50:19;;;;;;;22.27;7.80;;;;;;;;;;5047780;28;20055;-77
2023/02/24 14:53:04;;;;;;;20.20;6.90;;;;;;;;;;5040498;28;20029;-77
2023/02/24 14:55:40;;;;;;;20.20;7.00;;;;;;;;;;5048310;28;20056;-76
2023/02/24 14:58:12;;;;;;;28.30;7.30;;;;;;;;;;5048492;28;20516;-76
2023/02/24 15:00:41;;;;;;;25.70;7.40;;;;;;;;;;5038943;28;20108;-76
2023/02/24 15:03:25;;;;;;;21.90;7.38;;;;;;;;;;5047204;28;20111;-77
2023/02/24 15:05:55;;;;;;;28.30;7.85;;;;;;;;;;5043476;28;20036;-76
2023/02/24 15:08:40;;;;;;;27.42;7.85;;;;;;;;;;5043745;28;20048;-77
2023/02/24 15:11:26;;;;;;;22.30;6.88;;;;;;;;;;5043766;28;20053;-76
2023/02/24 15:13:53;;;;;;;17.25;4.97;;;;;;;;;;5041080;28;20029;-77
2023/02/24 15:16:38;;;;;;;24.77;7.03;;;;;;;;;;5046722;28;20475;-76
2023/02/24 15:19:04;;;;;;;28.77;6.07;;;;;;;;;;5044039;28;20072;-76
2023/02/24 15:21:31;;;;;;;21.10;6.20;;;;;;;;;;5046436;28;20046;-77
2023/02/24 15:23:59;;;;;;;24.77;7.57;;;;;;;;;;5046673;28;20032;-76